Time;durP1;ratioP1;P1;durP2;ratioP2;P2;SDS_P1;SDS_P2;PMS_P1;PMS_P2;Temp;Humidity;BMP_temperature;BMP_pressure;BME280_temperature;BME280_humidity;BME280_pressure;Samples;Min_cycle;Max_cycle;Signal;HPM_P1;HPM_P2
2020/12/20 00:01:39;;;;;;;;;;;;;;;;;;6304564;22;19944;-77
2020/12/20 00:04:05;;;;;;;;;;;;;;;;;;6304270;22;19931;-77
2020/12/20 00:06:31;;;;;;;;;;;;;;;;;;6305102;22;19899;-76
2020/12/20 00:08:56;;;;;;;;;;;;;;;;;;6305439;22;20000;-76
2020/12/20 00:11:22;;;;;;;;;;;;;;;;;;6304980;22;19910;-77
2020/12/20 00:13:48;;;;;;;;;;;;;;;;;;6304505;22;19926;-77
2020/12/20 00:16:14;;;;;;;;;;;;;;;;;;6304211;22;19960;-77
2020/12/20 00:18:40;;;;;;;;;;;;;;;;;;6304660;22;19969;-76
2020/12/20 00:21:06;;;;;;;;;;;;;;;;;;6303528;22;19920;-77
2020/12/20 00:23:32;;;;;;;;;;;;;;;;;;6304446;22;19902;-77
2020/12/20 00:25:58;;;;;;;;;;;;;;;;;;6304042;22;19903;-77
2020/12/20 00:28:24;;;;;;;;;;;;;;;;;;6304494;22;20065;-77
2020/12/20 00:30:49;;;;;;;;;;;;;;;;;;6303320;22;19937;-76
2020/12/20 00:33:15;;;;;;;;;;;;;;;;;;6304341;22;20308;-77
2020/12/20 00:35:41;;;;;;;;;;;;;;;;;;6304650;22;19899;-76
2020/12/20 00:38:07;;;;;;;;;;;;;;;;;;6304091;22;20402;-77
2020/12/20 00:40:33;;;;;;;;;;;;;;;;;;6304758;22;20257;-77
2020/12/20 00:42:59;;;;;;;;;;;;;;;;;;6304136;22;20351;-77
2020/12/20 00:45:25;;;;;;;;;;;;;;;;;;6302706;22;19902;-77
2020/12/20 00:47:51;;;;;;;;;;;;;;;;;;6304117;22;19903;-76
2020/12/20 00:50:16;;;;;;;;;;;;;;;;;;6304756;22;19910;-77
2020/12/20 00:52:42;;;;;;;;;;;;;;;;;;6305924;22;19899;-77
2020/12/20 00:55:08;;;;;;;;;;;;;;;;;;6307052;22;19910;-76
2020/12/20 00:57:34;;;;;;;;;;;;;;;;;;6305833;22;19960;-76
2020/12/20 01:00:00;;;;;;;;;;;;;;;;;;6306602;22;20150;-77
2020/12/20 01:02:26;;;;;;;;;;;;;;;;;;6306346;22;19927;-77
2020/12/20 01:04:52;;;;;;;;;;;;;;;;;;6306475;22;20319;-77
2020/12/20 01:07:18;;;;;;;;;;;;;;;;;;6305509;22;19898;-76
2020/12/20 01:09:45;;;;;;;;;;;;;;;;;;6307302;22;20331;-77
2020/12/20 01:12:11;;;;;;;;;;;;;;;;;;6307048;22;19899;-77
2020/12/20 01:14:37;;;;;;;;;;;;;;;;;;6306668;22;19926;-77
2020/12/20 01:17:03;;;;;;;;;;;;;;;;;;6306021;22;19905;-77
2020/12/20 01:19:29;;;;;;;;;;;;;;;;;;6306602;22;19910;-77
2020/12/20 01:21:55;;;;;;;;;;;;;;;;;;6306239;22;19982;-77
2020/12/20 01:24:21;;;;;;;;;;;;;;;;;;6306639;22;20380;-77
2020/12/20 01:26:47;;;;;;;;;;;;;;;;;;6306706;22;19907;-77
2020/12/20 01:29:13;;;;;;;;;;;;;;;;;;6306682;22;19899;-76
2020/12/20 01:31:39;;;;;;;;;;;;;;;;;;6306001;22;20268;-77
2020/12/20 01:34:05;;;;;;;;;;;;;;;;;;6306437;22;19906;-77
2020/12/20 01:36:32;;;;;;;;;;;;;;;;;;6305781;22;20001;-77
2020/12/20 01:38:58;;;;;;;;;;;;;;;;;;6305936;22;19915;-77
2020/12/20 01:41:24;;;;;;;;;;;;;;;;;;6304680;22;19986;-77
2020/12/20 01:43:51;;;;;;;;;;;;;;;;;;6306575;22;19955;-77
2020/12/20 01:46:17;;;;;;;;;;;;;;;;;;6305865;22;20243;-77
2020/12/20 01:48:43;;;;;;;;;;;;;;;;;;6304317;22;19903;-77
2020/12/20 01:51:09;;;;;;;;;;;;;;;;;;6306115;22;19899;-77
2020/12/20 01:53:35;;;;;;;;;;;;;;;;;;6305869;22;19903;-77
2020/12/20 01:56:01;;;;;;;;;;;;;;;;;;6306568;22;20311;-77
2020/12/20 01:58:27;;;;;;;;;;;;;;;;;;6305665;22;19906;-77
2020/12/20 02:00:53;;;;;;;;;;;;;;;;;;6306264;22;19906;-77
2020/12/20 02:03:19;;;;;;;;;;;;;;;;;;6305176;22;19899;-77
2020/12/20 02:05:44;;;;;;;;;;;;;;;;;;6304765;22;19899;-77
2020/12/20 02:08:11;;;;;;;;;;;;;;;;;;6305503;22;19960;-77
2020/12/20 02:10:37;;;;;;;;;;;;;;;;;;6305494;22;19913;-77
2020/12/20 02:13:03;;;;;;;;;;;;;;;;;;6305865;22;19930;-77
2020/12/20 02:15:28;;;;;;;;;;;;;;;;;;6306256;22;19898;-77
2020/12/20 02:17:54;;;;;;;;;;;;;;;;;;6305542;22;19902;-77
2020/12/20 02:20:20;;;;;;;;;;;;;;;;;;6305407;22;19929;-77
2020/12/20 02:22:46;;;;;;;;;;;;;;;;;;6305729;22;19914;-77
2020/12/20 02:25:12;;;;;;;;;;;;;;;;;;6305640;22;19926;-77
2020/12/20 02:27:38;;;;;;;;;;;;;;;;;;6306175;22;20303;-77
2020/12/20 02:30:04;;;;;;;;;;;;;;;;;;6306087;22;19898;-77
2020/12/20 02:32:30;;;;;;;;;;;;;;;;;;6305567;22;20382;-77
2020/12/20 02:34:55;;;;;;;;;;;;;;;;;;6305670;22;19902;-77
2020/12/20 02:37:21;;;;;;;;;;;;;;;;;;6304448;22;20350;-77
2020/12/20 02:39:47;;;;;;;;;;;;;;;;;;6305602;22;19910;-77
2020/12/20 02:42:13;;;;;;;;;;;;;;;;;;6305729;22;20357;-77
2020/12/20 02:44:39;;;;;;;;;;;;;;;;;;6305776;22;19933;-77
2020/12/20 02:47:05;;;;;;;;;;;;;;;;;;6305766;22;19898;-77
2020/12/20 02:49:31;;;;;;;;;;;;;;;;;;6305676;22;19984;-77
2020/12/20 02:51:57;;;;;;;;;;;;;;;;;;6304734;22;19906;-77
2020/12/20 02:54:23;;;;;;;;;;;;;;;;;;6305641;22;19950;-77
2020/12/20 02:56:48;;;;;;;;;;;;;;;;;;6305641;22;19920;-77
2020/12/20 02:59:14;;;;;;;;;;;;;;;;;;6304170;22;19907;-77
2020/12/20 03:01:40;;;;;;;;;;;;;;;;;;6305353;22;20235;-77
2020/12/20 03:04:06;;;;;;;;;;;;;;;;;;6304957;22;19986;-77
2020/12/20 03:06:32;;;;;;;;;;;;;;;;;;6305334;22;20315;-77
2020/12/20 03:08:58;;;;;;;;;;;;;;;;;;6305911;22;19899;-77
2020/12/20 03:11:24;;;;;;;;;;;;;;;;;;6305394;22;19899;-77
2020/12/20 03:13:50;;;;;;;;;;;;;;;;;;6305366;22;19953;-77
2020/12/20 03:16:15;;;;;;;;;;;;;;;;;;6304881;22;19903;-77
2020/12/20 03:18:41;;;;;;;;;;;;;;;;;;6305322;22;19989;-77
2020/12/20 03:21:07;;;;;;;;;;;;;;;;;;6304163;22;19991;-77
2020/12/20 03:23:33;;;;;;;;;;;;;;;;;;6305028;22;19948;-77
2020/12/20 03:25:59;;;;;;;;;;;;;;;;;;6305456;22;19899;-77
2020/12/20 03:28:25;;;;;;;;;;;;;;;;;;6304053;22;19972;-77
2020/12/20 03:30:51;;;;;;;;;;;;;;;;;;6305197;22;20318;-77
2020/12/20 03:33:17;;;;;;;;;;;;;;;;;;6304845;22;19910;-77
2020/12/20 03:35:43;;;;;;;;;;;;;;;;;;6305346;22;19902;-77
2020/12/20 03:38:09;;;;;;;;;;;;;;;;;;6303852;22;19918;-77
2020/12/20 03:40:35;;;;;;;;;;;;;;;;;;6304893;22;19902;-77
2020/12/20 03:43:01;;;;;;;;;;;;;;;;;;6305244;22;19899;-77
2020/12/20 03:45:27;;;;;;;;;;;;;;;;;;6305276;22;19973;-77
2020/12/20 03:47:52;;;;;;;;;;;;;;;;;;6303912;22;19903;-77
2020/12/20 03:50:18;;;;;;;;;;;;;;;;;;6305335;22;20337;-77
2020/12/20 03:52:44;;;;;;;;;;;;;;;;;;6304610;22;19956;-77
2020/12/20 03:55:10;;;;;;;;;;;;;;;;;;6305434;22;19899;-77
2020/12/20 03:57:36;;;;;;;;;;;;;;;;;;6304637;22;19903;-77
2020/12/20 04:00:02;;;;;;;;;;;;;;;;;;6303365;22;19911;-77
2020/12/20 04:02:28;;;;;;;;;;;;;;;;;;6304373;22;20239;-77
2020/12/20 04:04:54;;;;;;;;;;;;;;;;;;6304469;22;19903;-77
2020/12/20 04:07:20;;;;;;;;;;;;;;;;;;6304795;22;20410;-77
2020/12/20 04:09:45;;;;;;;;;;;;;;;;;;6305417;22;19899;-77
2020/12/20 04:12:11;;;;;;;;;;;;;;;;;;6304887;22;20327;-77
2020/12/20 04:14:37;;;;;;;;;;;;;;;;;;6303108;22;19951;-77
2020/12/20 04:17:03;;;;;;;;;;;;;;;;;;6303126;22;19956;-77
2020/12/20 04:19:29;;;;;;;;;;;;;;;;;;6304810;22;19994;-77
2020/12/20 04:21:55;;;;;;;;;;;;;;;;;;6304709;22;19906;-77
2020/12/20 04:24:21;;;;;;;;;;;;;;;;;;6304429;22;19906;-77
2020/12/20 04:26:47;;;;;;;;;;;;;;;;;;6304826;22;19902;-77
2020/12/20 04:29:13;;;;;;;;;;;;;;;;;;6303974;22;19899;-77
2020/12/20 04:31:38;;;;;;;;;;;;;;;;;;6304507;22;19993;-77
2020/12/20 04:34:04;;;;;;;;;;;;;;;;;;6303905;22;19918;-77
2020/12/20 04:36:30;;;;;;;;;;;;;;;;;;6305070;22;20307;-77
2020/12/20 04:38:56;;;;;;;;;;;;;;;;;;6304615;22;19979;-77
2020/12/20 04:41:22;;;;;;;;;;;;;;;;;;6303113;22;19919;-77
2020/12/20 04:43:48;;;;;;;;;;;;;;;;;;6304022;22;20231;-78
2020/12/20 04:46:14;;;;;;;;;;;;;;;;;;6304357;22;19903;-76
2020/12/20 04:48:40;;;;;;;;;;;;;;;;;;6303942;22;20228;-76
2020/12/20 04:51:06;;;;;;;;;;;;;;;;;;6304663;22;19906;-76
2020/12/20 04:53:31;;;;;;;;;;;;;;;;;;6303745;22;19906;-76
2020/12/20 04:55:57;;;;;;;;;;;;;;;;;;6304791;22;20321;-76
2020/12/20 04:58:23;;;;;;;;;;;;;;;;;;6304030;22;19949;-76
2020/12/20 05:00:49;;;;;;;;;;;;;;;;;;6304569;22;20315;-76
2020/12/20 05:03:15;;;;;;;;;;;;;;;;;;6303828;22;19903;-76
2020/12/20 05:05:41;;;;;;;;;;;;;;;;;;6304049;22;19903;-76
2020/12/20 05:08:07;;;;;;;;;;;;;;;;;;6304595;22;19907;-77
2020/12/20 05:10:33;;;;;;;;;;;;;;;;;;6304825;22;19922;-78
2020/12/20 05:12:59;;;;;;;;;;;;;;;;;;6303394;22;19914;-76
2020/12/20 05:15:25;;;;;;;;;;;;;;;;;;6303921;22;19902;-76
2020/12/20 05:17:51;;;;;;;;;;;;;;;;;;6304225;22;19898;-76
2020/12/20 05:20:17;;;;;;;;;;;;;;;;;;6302437;22;20395;-78
2020/12/20 05:22:42;;;;;;;;;;;;;;;;;;6304851;22;19945;-77
2020/12/20 05:25:08;;;;;;;;;;;;;;;;;;6302546;22;20320;-76
2020/12/20 05:27:34;;;;;;;;;;;;;;;;;;6304357;22;19899;-76
2020/12/20 05:30:00;;;;;;;;;;;;;;;;;;6304601;22;19982;-76
2020/12/20 05:32:26;;;;;;;;;;;;;;;;;;6304849;22;19970;-76
2020/12/20 05:34:52;;;;;;;;;;;;;;;;;;6302905;22;19966;-76
2020/12/20 05:37:18;;;;;;;;;;;;;;;;;;6304472;22;19899;-78
2020/12/20 05:39:44;;;;;;;;;;;;;;;;;;6305734;22;20266;-78
2020/12/20 05:42:09;;;;;;;;;;;;;;;;;;6305406;22;19930;-78
2020/12/20 05:44:35;;;;;;;;;;;;;;;;;;6305940;22;20319;-78
2020/12/20 05:47:01;;;;;;;;;;;;;;;;;;6304689;22;19899;-78
2020/12/20 05:49:27;;;;;;;;;;;;;;;;;;6306181;22;20319;-78
2020/12/20 05:51:53;;;;;;;;;;;;;;;;;;6306585;22;19898;-78
2020/12/20 05:54:20;;;;;;;;;;;;;;;;;;6306655;22;20364;-79
2020/12/20 05:56:46;;;;;;;;;;;;;;;;;;6306704;22;19910;-78
2020/12/20 05:59:12;;;;;;;;;;;;;;;;;;6306469;22;19964;-78
2020/12/20 06:01:38;;;;;;;;;;;;;;;;;;6305968;22;20338;-78
2020/12/20 06:04:04;;;;;;;;;;;;;;;;;;6306494;22;19898;-78
2020/12/20 06:06:29;;;;;;;;;;;;;;;;;;6306134;22;19906;-78
2020/12/20 06:08:55;;;;;;;;;;;;;;;;;;6305916;22;19922;-78
2020/12/20 06:11:21;;;;;;;;;;;;;;;;;;6305553;22;19902;-79
2020/12/20 06:13:47;;;;;;;;;;;;;;;;;;6306081;22;19902;-80
2020/12/20 06:16:13;;;;;;;;;;;;;;;;;;6305738;22;19899;-80
2020/12/20 06:18:39;;;;;;;;;;;;;;;;;;6305410;22;19938;-78
2020/12/20 06:21:05;;;;;;;;;;;;;;;;;;6306807;22;19903;-83
2020/12/20 06:23:31;;;;;;;;;;;;;;;;;;6305772;22;19903;-82
2020/12/20 06:25:56;;;;;;;;;;;;;;;;;;6299999;22;19914;-78
2020/12/20 06:28:22;;;;;;;;;;;;;;;;;;6305981;22;19906;-79
2020/12/20 06:30:48;;;;;;;;;;;;;;;;;;6305955;22;19920;-81
2020/12/20 06:33:14;;;;;;;;;;;;;;;;;;6304396;22;19899;-78
2020/12/20 06:35:40;;;;;;;;;;;;;;;;;;6301671;22;19910;-78
2020/12/20 06:38:06;;;;;;;;;;;;;;;;;;6303609;22;19909;-81
2020/12/20 06:40:32;;;;;;;;;;;;;;;;;;6305680;22;19903;-80
2020/12/20 06:42:58;;;;;;;;;;;;;;;;;;6304917;22;19926;-79
2020/12/20 06:45:24;;;;;;;;;;;;;;;;;;6305764;22;19903;-80
2020/12/20 06:47:50;;;;;;;;;;;;;;;;;;6305050;22;19899;-79
2020/12/20 06:50:16;;;;;;;;;;;;;;;;;;6304491;22;20243;-80
2020/12/20 06:52:42;;;;;;;;;;;;;;;;;;6305395;22;20243;-80
2020/12/20 06:55:08;;;;;;;;;;;;;;;;;;6305491;22;19907;-80
2020/12/20 06:57:34;;;;;;;;;;;;;;;;;;6305668;22;20228;-80
2020/12/20 06:59:59;;;;;;;;;;;;;;;;;;6305151;22;19989;-80
2020/12/20 07:02:25;;;;;;;;;;;;;;;;;;6304933;22;19938;-80
2020/12/20 07:04:51;;;;;;;;;;;;;;;;;;6305563;22;20288;-80
2020/12/20 07:07:17;;;;;;;;;;;;;;;;;;6305629;22;19907;-80
2020/12/20 07:09:43;;;;;;;;;;;;;;;;;;6304708;22;20255;-80
2020/12/20 07:12:09;;;;;;;;;;;;;;;;;;6304846;22;19918;-83
2020/12/20 07:14:35;;;;;;;;;;;;;;;;;;6305173;22;20227;-82
2020/12/20 07:17:01;;;;;;;;;;;;;;;;;;6305187;22;19922;-81
2020/12/20 07:19:26;;;;;;;;;;;;;;;;;;6304937;22;20352;-81
2020/12/20 07:21:53;;;;;;;;;;;;;;;;;;6304097;22;19898;-82
2020/12/20 07:24:19;;;;;;;;;;;;;;;;;;6305044;22;19921;-81
2020/12/20 07:26:45;;;;;;;;;;;;;;;;;;6303369;22;20267;-81
2020/12/20 07:29:11;;;;;;;;;;;;;;;;;;6302998;22;19899;-81
2020/12/20 07:31:37;;;;;;;;;;;;;;;;;;6303846;22;19910;-81
2020/12/20 07:34:03;;;;;;;;;;;;;;;;;;6286546;22;19907;-82
2020/12/20 07:36:29;;;;;;;;;;;;;;;;;;6299081;22;19934;-81
2020/12/20 07:38:55;;;;;;;;;;;;;;;;;;6304376;22;20033;-81
2020/12/20 07:41:21;;;;;;;;;;;;;;;;;;6304810;22;19903;-81
2020/12/20 07:43:46;;;;;;;;;;;;;;;;;;6305044;22;19903;-81
2020/12/20 07:46:12;;;;;;;;;;;;;;;;;;6304739;22;19906;-81
2020/12/20 07:48:38;;;;;;;;;;;;;;;;;;6304817;22;19914;-80
2020/12/20 07:51:04;;;;;;;;;;;;;;;;;;6304759;22;19903;-80
2020/12/20 07:53:30;;;;;;;;;;;;;;;;;;6305552;22;19898;-80
2020/12/20 07:55:56;;;;;;;;;;;;;;;;;;6305829;22;19906;-80
2020/12/20 07:58:22;;;;;;;;;;;;;;;;;;6305498;22;20047;-81
2020/12/20 08:00:48;;;;;;;;;;;;;;;;;;6304259;22;19922;-79
2020/12/20 08:03:14;;;;;;;;;;;;;;;;;;6304628;22;19906;-79
2020/12/20 08:05:40;;;;;;;;;;;;;;;;;;6305418;22;19949;-78
2020/12/20 08:08:06;;;;;;;;;;;;;;;;;;6305323;22;19903;-78
2020/12/20 08:10:32;;;;;;;;;;;;;;;;;;6305427;22;19898;-79
2020/12/20 08:12:58;;;;;;;;;;;;;;;;;;6305849;22;19977;-79
2020/12/20 08:15:23;;;;;;;;;;;;;;;;;;6305681;22;19899;-80
2020/12/20 08:17:49;;;;;;;;;;;;;;;;;;6305580;22;19904;-80
2020/12/20 08:20:15;;;;;;;;;;;;;;;;;;6305620;22;20243;-80
2020/12/20 08:22:41;;;;;;;;;;;;;;;;;;6303494;22;19944;-80
2020/12/20 08:25:07;;;;;;;;;;;;;;;;;;6304677;22;19902;-80
2020/12/20 08:27:33;;;;;;;;;;;;;;;;;;6305141;22;19926;-80
2020/12/20 08:29:59;;;;;;;;;;;;;;;;;;6304886;22;20230;-80
2020/12/20 08:32:26;;;;;;;;;;;;;;;;;;6304541;22;19957;-81
2020/12/20 08:34:51;;;;;;;;;;;;;;;;;;6305088;22;19981;-80
2020/12/20 08:37:17;;;;;;;;;;;;;;;;;;6306419;22;20292;-80
2020/12/20 08:39:43;;;;;;;;;;;;;;;;;;6304857;22;20227;-80
2020/12/20 08:42:09;;;;;;;;;;;;;;;;;;6304972;22;20002;-80
2020/12/20 08:44:35;;;;;;;;;;;;;;;;;;6304712;22;20316;-80
2020/12/20 08:47:01;;;;;;;;;;;;;;;;;;6303244;22;19933;-80
2020/12/20 08:49:27;;;;;;;;;;;;;;;;;;6303344;22;19903;-80
2020/12/20 08:51:53;;;;;;;;;;;;;;;;;;6303373;22;19902;-80
2020/12/20 08:54:19;;;;;;;;;;;;;;;;;;6304935;22;19899;-80
2020/12/20 08:56:48;;;;;;;;;;;;;;;;;;6304512;22;20688;-80
2020/12/20 08:59:14;;;;;;;;;;;;;;;;;;6304486;22;19907;-79
2020/12/20 09:01:40;;;;;;;;;;;;;;;;;;6304784;22;19943;-80
2020/12/20 09:04:05;;;;;;;;;;;;;;;;;;6304894;22;20041;-80
2020/12/20 09:06:31;;;;;;;;;;;;;;;;;;6305074;22;19903;-80
2020/12/20 09:08:57;;;;;;;;;;;;;;;;;;6302951;22;19952;-80
2020/12/20 09:11:23;;;;;;;;;;;;;;;;;;6303061;22;19902;-80
2020/12/20 09:13:49;;;;;;;;;;;;;;;;;;6306584;22;19925;-80
2020/12/20 09:16:15;;;;;;;;;;;;;;;;;;6306989;22;20319;-79
2020/12/20 09:18:41;;;;;;;;;;;;;;;;;;6305312;22;20311;-80
2020/12/20 09:21:07;;;;;;;;;;;;;;;;;;6307031;22;19914;-79
2020/12/20 09:23:33;;;;;;;;;;;;;;;;;;6306407;22;19899;-78
2020/12/20 09:25:59;;;;;;;;;;;;;;;;;;6306436;22;20600;-78
2020/12/20 09:28:25;;;;;;;;;;;;;;;;;;6306788;22;19899;-79
2020/12/20 09:30:51;;;;;;;;;;;;;;;;;;6305227;22;19903;-79
2020/12/20 09:33:17;;;;;;;;;;;;;;;;;;6306704;22;19960;-80
2020/12/20 09:35:43;;;;;;;;;;;;;;;;;;6306282;22;19899;-80
2020/12/20 09:38:09;;;;;;;;;;;;;;;;;;6305885;22;19909;-79
2020/12/20 09:40:35;;;;;;;;;;;;;;;;;;6306971;22;20602;-79
2020/12/20 09:43:01;;;;;;;;;;;;;;;;;;6306831;22;20267;-78
2020/12/20 09:45:27;;;;;;;;;;;;;;;;;;6306968;22;19914;-78
2020/12/20 09:47:53;;;;;;;;;;;;;;;;;;6306049;22;20273;-78
2020/12/20 09:50:18;;;;;;;;;;;;;;;;;;6306625;22;20005;-80
2020/12/20 09:52:45;;;;;;;;;;;;;;;;;;6306151;22;19978;-79
2020/12/20 09:55:11;;;;;;;;;;;;;;;;;;6306484;22;19974;-80
2020/12/20 09:57:37;;;;;;;;;;;;;;;;;;6304833;22;19899;-80
2020/12/20 10:00:02;;;;;;;;;;;;;;;;;;6304156;22;19911;-80
2020/12/20 10:02:28;;;;;;;;;;;;;;;;;;6305227;22;20373;-80
2020/12/20 10:04:54;;;;;;;;;;;;;;;;;;6305877;22;19905;-80
2020/12/20 10:07:20;;;;;;;;;;;;;;;;;;6306721;22;19923;-80
2020/12/20 10:09:46;;;;;;;;;;;;;;;;;;6306388;22;19921;-82
2020/12/20 10:12:12;;;;;;;;;;;;;;;;;;6306206;22;19909;-81
2020/12/20 10:14:38;;;;;;;;;;;;;;;;;;6305807;22;19910;-80
2020/12/20 10:17:04;;;;;;;;;;;;;;;;;;6306037;22;19903;-80
2020/12/20 10:19:30;;;;;;;;;;;;;;;;;;6304982;22;19942;-80
2020/12/20 10:21:56;;;;;;;;;;;;;;;;;;6305300;22;19899;-80
2020/12/20 10:24:21;;;;;;;;;;;;;;;;;;6305405;22;19905;-80
2020/12/20 10:26:47;;;;;;;;;;;;;;;;;;6305792;22;19960;-80
2020/12/20 10:29:14;;;;;;;;;;;;;;;;;;6305931;22;19902;-80
2020/12/20 10:31:40;;;;;;;;;;;;;;;;;;6305879;22;19898;-80
2020/12/20 10:34:06;;;;;;;;;;;;;;;;;;6305863;22;19973;-79
2020/12/20 10:36:32;;;;;;;;;;;;;;;;;;6306257;22;19941;-80
2020/12/20 10:38:58;;;;;;;;;;;;;;;;;;6305907;22;19915;-79
2020/12/20 10:41:24;;;;;;;;;;;;;;;;;;6305083;22;20276;-79
2020/12/20 10:43:50;;;;;;;;;;;;;;;;;;6305011;22;20264;-78
2020/12/20 10:46:16;;;;;;;;;;;;;;;;;;6304855;22;19899;-78
2020/12/20 10:48:41;;;;;;;;;;;;;;;;;;6305854;22;20379;-78
2020/12/20 10:51:10;;;;;;;;;;;;;;;;;;6304982;22;19903;-79
2020/12/20 10:53:36;;;;;;;;;;;;;;;;;;6304255;22;19906;-79
2020/12/20 10:56:01;;;;;;;;;;;;;;;;;;6305764;22;19902;-78
2020/12/20 10:58:27;;;;;;;;;;;;;;;;;;6304572;22;20218;-80
2020/12/20 11:00:53;;;;;;;;;;;;;;;;;;6305451;22;20619;-79
2020/12/20 11:03:19;;;;;;;;;;;;;;;;;;6305932;22;19898;-79
2020/12/20 11:05:45;;;;;;;;;;;;;;;;;;6305170;22;19899;-78
2020/12/20 11:08:11;;;;;;;;;;;;;;;;;;6306863;22;19923;-73
2020/12/20 11:10:37;;;;;;;;;;;;;;;;;;6305535;22;19928;-79
2020/12/20 11:13:03;;;;;;;;;;;;;;;;;;6305372;22;20201;-79
2020/12/20 11:15:29;;;;;;;;;;;;;;;;;;6304542;22;19903;-79
2020/12/20 11:17:55;;;;;;;;;;;;;;;;;;6305598;22;19899;-79
2020/12/20 11:20:21;;;;;;;;;;;;;;;;;;6305506;22;20243;-79
2020/12/20 11:22:46;;;;;;;;;;;;;;;;;;6305838;22;19988;-79
2020/12/20 11:25:12;;;;;;;;;;;;;;;;;;6305732;22;19903;-79
2020/12/20 11:27:38;;;;;;;;;;;;;;;;;;6304839;22;19926;-79
2020/12/20 11:30:04;;;;;;;;;;;;;;;;;;6305320;22;19903;-80
2020/12/20 11:32:34;;;;;;;;;;;;;;;;;;6304894;22;19906;-80
2020/12/20 11:35:00;;;;;;;;;;;;;;;;;;6304053;22;19981;-79
2020/12/20 11:37:26;;;;;;;;;;;;;;;;;;6301358;22;19996;-80
2020/12/20 11:39:51;;;;;;;;;;;;;;;;;;6304307;22;20390;-79
2020/12/20 11:42:18;;;;;;;;;;;;;;;;;;6304138;22;19910;-79
2020/12/20 11:44:44;;;;;;;;;;;;;;;;;;6302473;22;19933;-79
2020/12/20 11:47:10;;;;;;;;;;;;;;;;;;6303044;22;20037;-79
2020/12/20 11:49:36;;;;;;;;;;;;;;;;;;6304852;22;20323;-79
2020/12/20 11:52:02;;;;;;;;;;;;;;;;;;6304734;22;19902;-78
2020/12/20 11:54:28;;;;;;;;;;;;;;;;;;6305230;22;19899;-78
2020/12/20 11:56:54;;;;;;;;;;;;;;;;;;6305361;22;19977;-79
2020/12/20 11:59:20;;;;;;;;;;;;;;;;;;6305317;22;20044;-77
2020/12/20 12:01:46;;;;;;;;;;;;;;;;;;6305093;22;20312;-78
2020/12/20 12:04:12;;;;;;;;;;;;;;;;;;6304878;22;19903;-80
2020/12/20 12:06:41;;;;;;;;;;;;;;;;;;6303232;22;20256;-81
2020/12/20 12:09:06;;;;;;;;;;;;;;;;;;6303763;22;19899;-81
2020/12/20 12:11:32;;;;;;;;;;;;;;;;;;6304696;22;19906;-81
2020/12/20 12:13:58;;;;;;;;;;;;;;;;;;6303963;22;20492;-82
2020/12/20 12:16:24;;;;;;;;;;;;;;;;;;6301155;22;19902;-82
2020/12/20 12:18:50;;;;;;;;;;;;;;;;;;6304879;22;20209;-78
2020/12/20 12:21:16;;;;;;;;;;;;;;;;;;6305626;22;19949;-79
2020/12/20 12:23:42;;;;;;;;;;;;;;;;;;6304676;22;19899;-81
2020/12/20 12:26:08;;;;;;;;;;;;;;;;;;6304898;22;19906;-81
2020/12/20 12:28:34;;;;;;;;;;;;;;;;;;6305338;22;19899;-80
2020/12/20 12:31:00;;;;;;;;;;;;;;;;;;6304690;22;19934;-79
2020/12/20 12:33:26;;;;;;;;;;;;;;;;;;6305223;22;20352;-81
2020/12/20 12:35:52;;;;;;;;;;;;;;;;;;6306016;22;20714;-80
2020/12/20 12:38:17;;;;;;;;;;;;;;;;;;6305096;22;19909;-77
2020/12/20 12:40:43;;;;;;;;;;;;;;;;;;6305268;22;19902;-79
2020/12/20 12:43:09;;;;;;;;;;;;;;;;;;6308564;22;19899;-80
2020/12/20 12:45:35;;;;;;;;;;;;;;;;;;6303432;22;19938;-80
2020/12/20 12:48:01;;;;;;;;;;;;;;;;;;6303370;22;20374;-78
2020/12/20 12:50:27;;;;;;;;;;;;;;;;;;6306527;22;19907;-82
2020/12/20 12:52:53;;;;;;;;;;;;;;;;;;6306753;22;19952;-78
2020/12/20 12:55:19;;;;;;;;;;;;;;;;;;6306292;22;19906;-81
2020/12/20 12:57:45;;;;;;;;;;;;;;;;;;6305314;22;19899;-79
2020/12/20 13:00:11;;;;;;;;;;;;;;;;;;6306344;22;19968;-79
2020/12/20 13:02:37;;;;;;;;;;;;;;;;;;6306534;22;19907;-81
2020/12/20 13:05:03;;;;;;;;;;;;;;;;;;6305175;22;20391;-81
2020/12/20 13:07:29;;;;;;;;;;;;;;;;;;6306706;22;19909;-79
2020/12/20 13:09:55;;;;;;;;;;;;;;;;;;6306106;22;20238;-77
2020/12/20 13:12:21;;;;;;;;;;;;;;;;;;6307603;22;20380;-80
2020/12/20 13:14:47;;;;;;;;;;;;;;;;;;6305287;22;19902;-80
2020/12/20 13:17:13;;;;;;;;;;;;;;;;;;6306424;22;19898;-78
2020/12/20 13:19:39;;;;;;;;;;;;;;;;;;6294896;22;19959;-78
2020/12/20 13:22:05;;;;;;;;;;;;;;;;;;6305972;22;20402;-80
2020/12/20 13:24:31;;;;;;;;;;;;;;;;;;6299478;22;19945;-80
2020/12/20 13:26:57;;;;;;;;;;;;;;;;;;6304120;22;19899;-77
2020/12/20 13:29:22;;;;;;;;;;;;;;;;;;6294257;22;19910;-79
2020/12/20 13:31:48;;;;;;;;;;;;;;;;;;6303946;22;19906;-80
2020/12/20 13:34:14;;;;;;;;;;;;;;;;;;6305372;22;19899;-80
2020/12/20 13:36:40;;;;;;;;;;;;;;;;;;6305600;22;20384;-79
2020/12/20 13:39:06;;;;;;;;;;;;;;;;;;6306508;22;20409;-83
2020/12/20 13:41:32;;;;;;;;;;;;;;;;;;6306904;22;19925;-79
2020/12/20 13:43:58;;;;;;;;;;;;;;;;;;6306923;22;19907;-78
2020/12/20 13:46:24;;;;;;;;;;;;;;;;;;6305653;22;19969;-77
2020/12/20 13:48:50;;;;;;;;;;;;;;;;;;6299001;22;19982;-80
2020/12/20 13:51:15;;;;;;;;;;;;;;;;;;6305460;22;19902;-77
2020/12/20 13:53:42;;;;;;;;;;;;;;;;;;6305517;22;19898;-78
2020/12/20 13:56:07;;;;;;;;;;;;;;;;;;6306203;22;19982;-77
2020/12/20 13:58:33;;;;;;;;;;;;;;;;;;6305331;22;20307;-77
2020/12/20 14:00:59;;;;;;;;;;;;;;;;;;6305873;22;19934;-77
2020/12/20 14:03:25;;;;;;;;;;;;;;;;;;6305680;22;19903;-77
2020/12/20 14:05:51;;;;;;;;;;;;;;;;;;6305179;22;19906;-77
2020/12/20 14:08:17;;;;;;;;;;;;;;;;;;6305237;22;19932;-77
2020/12/20 14:10:43;;;;;;;;;;;;;;;;;;6305623;22;20227;-77
2020/12/20 14:13:09;;;;;;;;;;;;;;;;;;6304769;22;20266;-77
2020/12/20 14:15:36;;;;;;;;;;;;;;;;;;6311461;22;19907;-77
2020/12/20 14:18:02;;;;;;;;;;;;;;;;;;6305419;22;19902;-77
2020/12/20 14:20:27;;;;;;;;;;;;;;;;;;6304957;22;19921;-77
2020/12/20 14:22:53;;;;;;;;;;;;;;;;;;6305155;22;19903;-77
2020/12/20 14:25:19;;;;;;;;;;;;;;;;;;6305529;22;19903;-77
2020/12/20 14:27:45;;;;;;;;;;;;;;;;;;6305393;22;20296;-77
2020/12/20 14:30:11;;;;;;;;;;;;;;;;;;6305693;22;19906;-77
2020/12/20 14:32:37;;;;;;;;;;;;;;;;;;6306564;22;20100;-77
2020/12/20 14:35:03;;;;;;;;;;;;;;;;;;6307421;22;19913;-77
2020/12/20 14:37:29;;;;;;;;;;;;;;;;;;6305742;22;20320;-77
2020/12/20 14:39:55;;;;;;;;;;;;;;;;;;6304867;22;20209;-77
2020/12/20 14:42:20;;;;;;;;;;;;;;;;;;6305772;22;19948;-77
2020/12/20 14:44:47;;;;;;;;;;;;;;;;;;6304995;22;19905;-77
2020/12/20 14:47:13;;;;;;;;;;;;;;;;;;6305300;22;20320;-77
2020/12/20 14:49:39;;;;;;;;;;;;;;;;;;6305074;22;19959;-77
2020/12/20 14:52:05;;;;;;;;;;;;;;;;;;6305132;22;19909;-77
2020/12/20 14:54:31;;;;;;;;;;;;;;;;;;6305305;22;19910;-77
2020/12/20 14:56:57;;;;;;;;;;;;;;;;;;6305095;22;19909;-77
2020/12/20 14:59:23;;;;;;;;;;;;;;;;;;6304622;22;19916;-75
2020/12/20 15:01:49;;;;;;;;;;;;;;;;;;6305277;22;19928;-77
2020/12/20 15:04:15;;;;;;;;;;;;;;;;;;6304659;22;19903;-77
2020/12/20 15:06:40;;;;;;;;;;;;;;;;;;6303599;22;20380;-77
2020/12/20 15:09:06;;;;;;;;;;;;;;;;;;6304757;22;19903;-77
2020/12/20 15:11:32;;;;;;;;;;;;;;;;;;6304470;22;19903;-77
2020/12/20 15:13:58;;;;;;;;;;;;;;;;;;6302049;22;20265;-77
2020/12/20 15:16:24;;;;;;;;;;;;;;;;;;6304158;22;19902;-77
2020/12/20 15:18:50;;;;;;;;;;;;;;;;;;6304102;22;19907;-77
2020/12/20 15:21:16;;;;;;;;;;;;;;;;;;6304277;22;19902;-77
2020/12/20 15:23:42;;;;;;;;;;;;;;;;;;6303733;22;19906;-77
2020/12/20 15:26:08;;;;;;;;;;;;;;;;;;6303977;22;20384;-77
2020/12/20 15:28:34;;;;;;;;;;;;;;;;;;6304081;22;19906;-77
2020/12/20 15:31:00;;;;;;;;;;;;;;;;;;6304057;22;19945;-76
2020/12/20 15:33:25;;;;;;;;;;;;;;;;;;6304463;22;19914;-76
2020/12/20 15:35:52;;;;;;;;;;;;;;;;;;6304240;22;20322;-77
2020/12/20 15:38:18;;;;;;;;;;;;;;;;;;6303815;22;19914;-77
2020/12/20 15:40:44;;;;;;;;;;;;;;;;;;6304262;22;19906;-77
2020/12/20 15:43:09;;;;;;;;;;;;;;;;;;6304491;22;19930;-77
2020/12/20 15:45:35;;;;;;;;;;;;;;;;;;6304313;22;19903;-76
2020/12/20 15:48:01;;;;;;;;;;;;;;;;;;6304449;22;19899;-77
2020/12/20 15:50:27;;;;;;;;;;;;;;;;;;6304467;22;19906;-77
2020/12/20 15:52:53;;;;;;;;;;;;;;;;;;6304382;22;20347;-77
2020/12/20 15:55:19;;;;;;;;;;;;;;;;;;6302874;22;19899;-76
2020/12/20 15:57:45;;;;;;;;;;;;;;;;;;6302689;22;19902;-77
2020/12/20 16:00:11;;;;;;;;;;;;;;;;;;6303985;22;19911;-76
2020/12/20 16:02:37;;;;;;;;;;;;;;;;;;6304595;22;20359;-76
2020/12/20 16:05:03;;;;;;;;;;;;;;;;;;6304636;22;19899;-76
2020/12/20 16:07:28;;;;;;;;;;;;;;;;;;6304078;22;19978;-76
2020/12/20 16:09:54;;;;;;;;;;;;;;;;;;6304358;22;19898;-76
2020/12/20 16:12:20;;;;;;;;;;;;;;;;;;6303548;22;19902;-76
2020/12/20 16:14:46;;;;;;;;;;;;;;;;;;6303821;22;20331;-77
2020/12/20 16:17:12;;;;;;;;;;;;;;;;;;6303500;22;19902;-77
2020/12/20 16:19:38;;;;;;;;;;;;;;;;;;6303588;22;19918;-76
2020/12/20 16:22:04;;;;;;;;;;;;;;;;;;6303674;22;19952;-76
2020/12/20 16:24:30;;;;;;;;;;;;;;;;;;6297400;22;19991;-76
2020/12/20 16:26:56;;;;;;;;;;;;;;;;;;6304933;22;19906;-75
2020/12/20 16:29:22;;;;;;;;;;;;;;;;;;6305943;22;19910;-75
2020/12/20 16:31:47;;;;;;;;;;;;;;;;;;6302436;22;19985;-75
2020/12/20 16:34:13;;;;;;;;;;;;;;;;;;6303000;22;19905;-75
2020/12/20 16:36:39;;;;;;;;;;;;;;;;;;6302617;22;19926;-75